Bajawa Soa Airport


Codes: WATB/BJW
Name: Bajawa Soa Airport
City: Bajawa
Country: Indonesia
Elevation: 4326 ft.
Wikipedia:

Photos at Bajawa Soa Airport


   Photos courtesy of SpottingLog. You can add your own sightings and photos by signing up for a free trial today.



No photos found.

Weather at Bajawa Soa Airport


Time (UTC)DescriptionTempratureWindCloud coverageVisibilityPressureHumidity
25-Jun-2024 12:00Overcast Clouds21°C2 mph, S91%10000m1013hPa97%
25-Jun-2024 15:00Overcast Clouds21°C2 mph, SW85%10000m1013hPa98%
25-Jun-2024 18:00Broken Clouds20°C2 mph, SW80%10000m1012hPa99%
25-Jun-2024 21:00Light Rain20°C4 mph, SW97%2427m1012hPa100%
26-Jun-2024 00:00Overcast Clouds22°C2 mph, S96%10000m1014hPa89%
26-Jun-2024 03:00Overcast Clouds28°C2 mph, S95%10000m1012hPa64%
26-Jun-2024 06:00Overcast Clouds27°C2 mph, SE99%10000m1010hPa70%
26-Jun-2024 09:00Light Rain25°C2 mph, SE97%10000m1011hPa85%
26-Jun-2024 12:00Light Rain22°C0 mph, SE93%10000m1014hPa98%
26-Jun-2024 15:00Broken Clouds21°C2 mph, SW51%10000m1014hPa99%
26-Jun-2024 18:00Broken Clouds21°C2 mph, SW59%3071m1014hPa100%
26-Jun-2024 21:00Broken Clouds21°C2 mph, SW68%10000m1013hPa100%
27-Jun-2024 00:00Broken Clouds24°C2 mph, S55%10000m1014hPa82%
27-Jun-2024 03:00Clear Sky30°C2 mph, E1%10000m1013hPa56%
27-Jun-2024 06:00Few Clouds30°C2 mph, E19%10000m1010hPa60%
27-Jun-2024 09:00Light Rain25°C0 mph, SE92%10000m1011hPa86%
27-Jun-2024 12:00Broken Clouds23°C0 mph, SW84%7524m1013hPa98%
27-Jun-2024 15:00Scattered Clouds22°C2 mph, W48%10000m1014hPa96%
27-Jun-2024 18:00Scattered Clouds22°C2 mph, SW46%10000m1013hPa94%
27-Jun-2024 21:00Broken Clouds22°C2 mph, SW53%10000m1014hPa95%
28-Jun-2024 00:00Broken Clouds25°C2 mph, S53%10000m1015hPa80%
28-Jun-2024 03:00Scattered Clouds30°C2 mph, S34%10000m1014hPa56%
28-Jun-2024 06:00Scattered Clouds30°C4 mph, SE28%10000m1011hPa57%
28-Jun-2024 09:00Light Rain26°C2 mph, S20%10000m1012hPa78%
28-Jun-2024 12:00Few Clouds21°C2 mph, SW19%10000m1014hPa96%
28-Jun-2024 15:00Overcast Clouds20°C2 mph, SW87%10000m1015hPa92%
28-Jun-2024 18:00Broken Clouds20°C2 mph, SW59%10000m1014hPa92%
28-Jun-2024 21:00Broken Clouds19°C4 mph, S61%10000m1014hPa96%
29-Jun-2024 00:00Broken Clouds24°C4 mph, S55%10000m1015hPa78%
29-Jun-2024 03:00Few Clouds29°C7 mph, S14%10000m1013hPa57%
29-Jun-2024 06:00Light Rain28°C7 mph, S24%10000m1012hPa69%
29-Jun-2024 09:00Light Rain25°C4 mph, S30%10000m1012hPa84%
29-Jun-2024 12:00Scattered Clouds21°C4 mph, S50%10000m1014hPa98%
29-Jun-2024 15:00Light Rain22°C4 mph, S97%10000m1015hPa99%
29-Jun-2024 18:00Light Rain22°C4 mph, S99%2318m1014hPa100%
29-Jun-2024 21:00Light Rain22°C4 mph, S96%10000m1014hPa98%
30-Jun-2024 00:00Overcast Clouds23°C4 mph, S98%2282m1015hPa92%
30-Jun-2024 03:00Light Rain27°C7 mph, S93%10000m1013hPa77%
30-Jun-2024 06:00Light Rain25°C7 mph, S96%2734m1011hPa85%
30-Jun-2024 09:00Light Rain24°C4 mph, S80%10000m1012hPa87%